Time;durP1;ratioP1;P1;durP2;ratioP2;P2;SDS_P1;SDS_P2;PMS_P1;PMS_P2;Temp;Humidity;BMP_temperature;BMP_pressure;BME280_temperature;BME280_humidity;BME280_pressure;Samples;Min_cycle;Max_cycle;Signal;HPM_P1;HPM_P2
2022/03/28 00:01:13;;;;;;;19.50;8.00;;;;;;;4.10;88.52;102090.13;5974780;28;20475;-71
2022/03/28 00:04:08;;;;;;;23.75;8.07;;;;;;;4.15;88.13;102081.13;5984910;28;20031;-69
2022/03/28 00:07:04;;;;;;;23.40;7.95;;;;;;;3.91;88.74;102084.88;5975434;29;20042;-70
2022/03/28 00:09:59;;;;;;;21.65;7.32;;;;;;;3.83;89.15;102080.91;5973973;29;20553;-72
2022/03/28 00:12:54;;;;;;;23.23;7.77;;;;;;;3.81;91.08;102086.19;5974820;29;20197;-70
2022/03/28 00:15:49;;;;;;;27.00;8.57;;;;;;;3.71;91.43;102087.53;5977522;28;20371;-70
2022/03/28 00:18:45;;;;;;;23.20;7.57;;;;;;;3.65;92.14;102092.19;5978978;29;20376;-70
2022/03/28 00:21:40;;;;;;;18.93;7.73;;;;;;;3.61;92.05;102087.06;5978920;28;20034;-70
2022/03/28 00:24:36;;;;;;;27.07;10.07;;;;;;;3.67;92.85;102077.25;5987421;28;20035;-72
2022/03/28 00:27:31;;;;;;;25.40;8.48;;;;;;;3.60;92.65;102074.91;5986767;28;20167;-70
2022/03/28 00:30:26;;;;;;;27.23;8.88;;;;;;;3.83;93.58;102073.03;5972937;28;20032;-69
2022/03/28 00:33:22;;;;;;;27.87;9.50;;;;;;;4.06;93.54;102064.94;6002180;28;20069;-72
2022/03/28 00:36:17;;;;;;;25.43;8.73;;;;;;;4.38;92.54;102073.91;5984977;28;20114;-71
2022/03/28 00:39:12;;;;;;;20.57;8.70;;;;;;;4.53;92.49;102063.53;5974976;29;20046;-69
2022/03/28 00:42:08;;;;;;;20.58;8.23;;;;;;;4.56;91.13;102058.16;5988533;28;20035;-71
2022/03/28 00:45:05;;;;;;;22.47;8.57;;;;;;;4.64;90.67;102050.75;5977783;29;20475;-70
2022/03/28 00:48:01;;;;;;;27.35;8.90;;;;;;;4.64;90.21;102042.84;5967509;29;20035;-72
2022/03/28 00:50:57;;;;;;;27.88;9.57;;;;;;;4.72;89.02;102040.69;5974464;28;20062;-71
2022/03/28 00:53:52;;;;;;;21.77;8.80;;;;;;;4.51;88.15;102027.78;5979046;28;20043;-70
2022/03/28 00:56:48;;;;;;;24.45;8.57;;;;;;;4.54;87.95;102033.69;5972927;29;20788;-70
2022/03/28 00:59:44;;;;;;;20.17;8.07;;;;;;;4.46;88.22;102029.75;5977331;28;20027;-71
2022/03/28 01:02:39;;;;;;;28.80;9.07;;;;;;;4.33;89.24;102034.75;5975687;29;20054;-71
2022/03/28 01:05:35;;;;;;;24.60;8.35;;;;;;;4.49;88.60;102025.19;5977048;29;20066;-72
2022/03/28 01:08:31;;;;;;;20.52;7.82;;;;;;;4.59;88.50;102031.69;5978434;29;20032;-72
2022/03/28 01:11:27;;;;;;;23.17;8.98;;;;;;;4.24;87.96;102019.44;5978667;28;20039;-70
2022/03/28 01:14:22;;;;;;;18.58;7.65;;;;;;;4.33;89.25;102021.63;5960628;29;20509;-72
2022/03/28 01:20:33;;;;;;;23.25;7.70;;;;;;;4.03;89.05;102016.06;5981294;28;20571;-69
2022/03/28 01:23:29;;;;;;;20.83;8.57;;;;;;;4.02;89.92;102019.59;5978333;28;20406;-71
2022/03/28 01:26:24;;;;;;;25.85;8.02;;;;;;;3.68;90.94;102018.63;5999308;28;20055;-71
2022/03/28 01:29:20;;;;;;;25.80;8.77;;;;;;;3.51;90.59;102012.38;5980573;29;20034;-72
2022/03/28 01:32:15;;;;;;;26.08;9.18;;;;;;;3.53;91.93;102005.28;5980131;29;20035;-70
2022/03/28 01:35:10;;;;;;;21.47;8.83;;;;;;;3.92;91.77;101997.34;5965289;28;20059;-71
2022/03/28 01:38:09;;;;;;;26.77;9.93;;;;;;;4.13;91.01;102000.75;5981426;28;20039;-71
2022/03/28 01:41:04;;;;;;;27.10;8.82;;;;;;;3.80;90.77;102002.31;5981327;29;20039;-71
2022/03/28 01:43:59;;;;;;;30.07;9.50;;;;;;;3.68;91.51;101993.25;5978684;28;20030;-70
2022/03/28 01:46:55;;;;;;;27.87;9.23;;;;;;;3.92;91.11;101996.50;6000986;28;20066;-72
2022/03/28 01:49:50;;;;;;;23.90;8.47;;;;;;;4.02;90.44;101990.72;5980270;29;20610;-70
2022/03/28 01:52:46;;;;;;;22.20;7.65;;;;;;;3.93;90.05;101983.31;5979222;29;20473;-72
2022/03/28 01:55:41;;;;;;;21.13;8.87;;;;;;;3.70;89.82;101985.28;5981990;29;20027;-72
2022/03/28 01:58:36;;;;;;;33.38;9.82;;;;;;;3.73;90.49;101985.16;5975454;28;20280;-72
2022/03/28 02:01:32;;;;;;;24.50;8.60;;;;;;;3.67;90.00;101977.59;5975663;28;20046;-71
2022/03/28 02:04:27;;;;;;;26.30;9.55;;;;;;;3.89;90.61;101980.88;5980804;28;20054;-71
2022/03/28 02:07:23;;;;;;;25.90;8.77;;;;;;;3.63;90.44;101978.63;5991240;28;20063;-72
2022/03/28 02:10:20;;;;;;;23.60;8.30;;;;;;;3.47;89.80;101976.72;5961640;28;20040;-70
2022/03/28 02:13:15;;;;;;;28.13;9.32;;;;;;;3.37;89.92;101961.50;5977577;29;20039;-71
2022/03/28 02:16:11;;;;;;;31.43;8.80;;;;;;;3.22;90.94;101968.25;5981209;29;20054;-72
2022/03/28 02:19:06;;;;;;;21.83;8.68;;;;;;;3.40;91.10;101963.94;5979545;29;20039;-71
2022/03/28 02:22:02;;;;;;;25.73;9.13;;;;;;;3.13;92.54;101963.41;5978432;28;20032;-70
2022/03/28 02:24:57;;;;;;;28.42;9.00;;;;;;;2.93;92.06;101950.38;5980830;29;20513;-70
2022/03/28 02:27:53;;;;;;;31.27;9.60;;;;;;;2.95;93.00;101959.00;5980564;28;20043;-70
2022/03/28 02:30:49;;;;;;;27.35;10.13;;;;;;;3.16;93.36;101949.31;5979678;28;20031;-72
2022/03/28 02:33:44;;;;;;;28.55;9.05;;;;;;;3.37;93.53;101951.00;5982777;28;20030;-69
2022/03/28 02:36:40;;;;;;;28.52;10.07;;;;;;;3.13;93.78;101937.22;5983377;28;20035;-70
2022/03/28 02:39:35;;;;;;;30.50;8.90;;;;;;;3.17;93.75;101940.56;5981600;28;20045;-72
2022/03/28 02:42:31;;;;;;;25.00;8.93;;;;;;;3.22;93.34;101928.94;5984981;28;20045;-70
2022/03/28 02:45:29;;;;;;;26.33;9.63;;;;;;;3.56;93.38;101930.88;5986650;28;20031;-72
2022/03/28 02:48:24;;;;;;;29.52;9.57;;;;;;;3.43;92.95;101930.59;5983950;28;20027;-71
2022/03/28 02:51:19;;;;;;;24.87;8.57;;;;;;;3.21;91.78;101924.63;5980135;29;20633;-71
2022/03/28 02:54:15;;;;;;;25.20;8.33;;;;;;;3.19;91.83;101929.09;5977404;29;20403;-71
2022/03/28 02:57:10;;;;;;;31.03;9.73;;;;;;;3.39;92.69;101921.19;5982757;28;20058;-71
2022/03/28 03:00:10;;;;;;;30.60;10.02;;;;;;;3.51;92.17;101917.97;5992785;28;20035;-70
2022/03/28 03:03:06;;;;;;;36.22;11.30;;;;;;;3.62;91.79;101925.34;6003620;28;20030;-70
2022/03/28 03:06:02;;;;;;;29.00;10.33;;;;;;;3.37;91.17;101917.75;5988494;28;20039;-71
2022/03/28 03:08:58;;;;;;;34.05;10.38;;;;;;;3.15;91.06;101919.69;5979802;29;20382;-71
2022/03/28 03:11:54;;;;;;;28.65;8.95;;;;;;;2.96;91.81;101916.19;5975333;28;20039;-73
2022/03/28 03:14:50;;;;;;;35.17;10.63;;;;;;;2.98;91.86;101916.94;5977767;28;20034;-71
2022/03/28 03:17:46;;;;;;;28.40;10.27;;;;;;;3.00;92.26;101915.09;5996994;28;20078;-71
2022/03/28 03:20:41;;;;;;;28.73;10.73;;;;;;;3.12;92.99;101913.72;5971738;28;20051;-71
2022/03/28 03:23:36;;;;;;;33.50;10.00;;;;;;;2.89;92.72;101912.97;5978252;29;20439;-71
2022/03/28 03:26:32;;;;;;;27.60;9.67;;;;;;;2.83;93.45;101909.75;5981506;28;20479;-71
2022/03/28 03:29:27;;;;;;;31.57;10.40;;;;;;;2.91;92.97;101915.50;5982943;28;20090;-72
2022/03/28 03:32:22;;;;;;;33.93;10.90;;;;;;;3.05;92.99;101913.13;5990527;28;20282;-71
2022/03/28 03:35:19;;;;;;;30.48;9.95;;;;;;;3.11;93.31;101912.84;5979882;29;20405;-71
2022/03/28 03:38:14;;;;;;;27.40;10.03;;;;;;;3.16;92.85;101900.41;5990551;28;20034;-70
2022/03/28 03:41:10;;;;;;;33.47;10.73;;;;;;;2.89;92.49;101907.72;5991675;28;20027;-71
2022/03/28 03:44:09;;;;;;;31.40;9.85;;;;;;;2.90;92.27;101898.09;5977870;28;20042;-72
2022/03/28 03:47:05;;;;;;;30.05;9.15;;;;;;;3.04;92.57;101893.09;5994040;28;20042;-71
2022/03/28 03:50:00;;;;;;;30.45;9.80;;;;;;;3.10;91.77;101900.66;5978501;29;20035;-71
2022/03/28 03:52:55;;;;;;;24.87;9.50;;;;;;;2.92;92.10;101896.25;5977388;29;20126;-72
2022/03/28 03:55:51;;;;;;;30.70;10.40;;;;;;;2.85;91.53;101894.84;5979491;29;20781;-72
2022/03/28 03:58:46;;;;;;;25.53;9.37;;;;;;;2.59;91.90;101902.97;5978482;28;20275;-70
2022/03/28 04:01:41;;;;;;;35.30;9.93;;;;;;;2.51;91.84;101902.44;5976467;29;20286;-71
2022/03/28 04:04:36;;;;;;;27.80;9.07;;;;;;;2.90;91.75;101887.63;5976102;28;20367;-72
2022/03/28 04:07:32;;;;;;;27.27;9.60;;;;;;;2.59;92.36;101893.34;5978475;29;20031;-70
2022/03/28 04:10:27;;;;;;;27.97;9.13;;;;;;;2.57;91.67;101894.34;5978703;28;20037;-72
2022/03/28 04:13:23;;;;;;;27.80;8.85;;;;;;;2.38;92.03;101889.91;5977699;28;20050;-69
2022/03/28 04:16:18;;;;;;;41.80;10.77;;;;;;;2.46;92.81;101883.47;5979311;29;20031;-71
2022/03/28 04:19:14;;;;;;;35.23;11.63;;;;;;;2.66;93.74;101888.72;5976267;29;20035;-71
2022/03/28 04:22:09;;;;;;;29.88;8.60;;;;;;;2.75;94.05;101873.44;5975470;28;20043;-72
2022/03/28 04:25:05;;;;;;;33.97;11.50;;;;;;;2.79;95.06;101868.91;5977313;29;20035;-72
2022/03/28 04:28:00;;;;;;;61.17;11.18;;;;;;;2.73;95.39;101864.81;5975825;29;20084;-71
2022/03/28 04:30:56;;;;;;;95.40;11.00;;;;;;;2.79;95.67;101866.31;5973186;29;20036;-71
2022/03/28 04:33:52;;;;;;;104.82;10.88;;;;;;;2.66;95.19;101866.00;5974069;29;20057;-71
2022/03/28 04:36:47;;;;;;;77.13;10.65;;;;;;;2.59;96.02;101879.41;5970619;29;20039;-71
2022/03/28 04:39:42;;;;;;;71.43;9.57;;;;;;;2.55;96.45;101872.63;5982485;28;20106;-71
2022/03/28 04:42:38;;;;;;;80.57;9.30;;;;;;;2.52;96.72;101872.75;5976187;29;20043;-70
2022/03/28 04:45:33;;;;;;;61.43;10.67;;;;;;;2.48;96.70;101873.78;5978722;29;20282;-71
2022/03/28 04:48:28;;;;;;;63.40;10.23;;;;;;;2.50;97.01;101878.03;5974517;28;20027;-70
2022/03/28 04:51:24;;;;;;;92.30;11.07;;;;;;;2.42;97.37;101868.84;5984837;28;20039;-72
2022/03/28 04:54:19;;;;;;;42.53;8.63;;;;;;;2.40;97.81;101861.03;5980926;28;20058;-71
2022/03/28 04:57:14;;;;;;;72.60;10.73;;;;;;;2.39;97.54;101862.78;5991389;28;20038;-72
2022/03/28 05:00:11;;;;;;;112.83;10.40;;;;;;;2.33;97.78;101859.59;5990125;28;20588;-71
2022/03/28 05:03:06;;;;;;;35.38;9.95;;;;;;;2.37;97.41;101856.78;5977852;28;20031;-70
2022/03/28 05:06:02;;;;;;;45.00;8.93;;;;;;;2.23;97.85;101843.44;6001372;28;20075;-70
2022/03/28 05:08:57;;;;;;;35.60;10.25;;;;;;;2.15;97.92;101850.75;6003738;28;20042;-71
2022/03/28 05:11:53;;;;;;;35.30;9.03;;;;;;;2.21;98.29;101853.13;5978583;28;20042;-70
2022/03/28 05:14:49;;;;;;;35.78;8.85;;;;;;;2.12;98.35;101855.28;5989145;28;20036;-70
2022/03/28 05:17:44;;;;;;;33.88;10.10;;;;;;;2.01;98.20;101858.31;5978448;29;20112;-69
2022/03/28 05:20:40;;;;;;;30.97;8.97;;;;;;;1.92;98.67;101853.50;5981766;28;20035;-70
2022/03/28 05:23:36;;;;;;;44.88;9.02;;;;;;;2.02;98.88;101853.94;5982748;29;20031;-71
2022/03/28 05:26:31;;;;;;;42.63;8.85;;;;;;;1.90;98.61;101844.00;5986905;28;20167;-72
2022/03/28 05:29:26;;;;;;;38.60;8.90;;;;;;;1.97;98.09;101854.16;5975457;28;20034;-71
2022/03/28 05:32:22;;;;;;;23.48;7.70;;;;;;;2.07;98.78;101841.53;5982173;28;20118;-72
2022/03/28 05:35:17;;;;;;;50.78;9.25;;;;;;;1.83;98.52;101851.25;5980851;28;20113;-72
2022/03/28 05:38:13;;;;;;;44.38;9.38;;;;;;;1.95;99.21;101842.91;5980996;28;20042;-71
2022/03/28 05:41:08;;;;;;;25.60;7.97;;;;;;;2.01;98.59;101839.19;5976048;28;20054;-72
2022/03/28 05:44:04;;;;;;;29.70;8.25;;;;;;;2.33;98.97;101839.53;5968948;28;20039;-71
2022/03/28 05:46:59;;;;;;;53.67;8.50;;;;;;;2.10;98.67;101839.63;5979422;28;20039;-70
2022/03/28 05:49:55;;;;;;;29.53;7.53;;;;;;;2.15;98.99;101826.34;5978411;28;20079;-70
2022/03/28 05:52:50;;;;;;;25.23;6.90;;;;;;;2.08;99.23;101823.16;5979748;29;20270;-70
2022/03/28 05:55:46;;;;;;;73.03;7.60;;;;;;;1.97;98.51;101824.53;5977511;28;20035;-71
2022/03/28 05:58:41;;;;;;;33.65;7.18;;;;;;;1.98;98.70;101824.47;5980336;28;20430;-71
2022/03/28 06:01:36;;;;;;;39.40;6.57;;;;;;;2.04;99.45;101821.56;5977954;28;20035;-71
2022/03/28 06:04:32;;;;;;;17.67;6.63;;;;;;;2.18;99.41;101821.00;5984231;28;20085;-72
2022/03/28 06:07:27;;;;;;;31.77;7.43;;;;;;;2.20;99.27;101821.81;5997248;28;20113;-70
2022/03/28 06:10:22;;;;;;;67.73;8.57;;;;;;;2.06;98.75;101824.16;5980537;29;20372;-69
2022/03/28 06:13:18;;;;;;;37.27;7.00;;;;;;;1.89;99.25;101816.16;5981682;29;20042;-70
2022/03/28 06:16:14;;;;;;;40.72;6.82;;;;;;;2.21;98.88;101820.88;5981522;29;20031;-72
2022/03/28 06:19:09;;;;;;;31.23;6.60;;;;;;;2.10;99.03;101810.00;5980021;28;20063;-70
2022/03/28 06:22:04;;;;;;;40.95;6.07;;;;;;;2.35;98.80;101811.50;5981313;28;20127;-69
2022/03/28 06:25:00;;;;;;;38.10;6.67;;;;;;;2.31;98.89;101812.53;6004492;28;20035;-71
2022/03/28 06:27:55;;;;;;;46.97;6.40;;;;;;;2.28;99.04;101828.38;5987690;28;20049;-70
2022/03/28 06:30:51;;;;;;;58.10;6.32;;;;;;;2.17;98.34;101828.00;5980556;29;20036;-72
2022/03/28 06:33:46;;;;;;;26.80;5.37;;;;;;;2.02;98.62;101823.41;5979223;29;20078;-70
2022/03/28 06:36:44;;;;;;;39.97;5.97;;;;;;;2.15;98.58;101816.75;5994783;28;20274;-71
2022/03/28 06:39:39;;;;;;;28.92;4.90;;;;;;;2.26;98.44;101822.38;6004173;28;20054;-71
2022/03/28 06:42:35;;;;;;;33.27;5.80;;;;;;;2.09;98.78;101817.00;5992214;28;20038;-71
2022/03/28 06:45:31;;;;;;;24.47;4.70;;;;;;;2.16;98.25;101820.22;5992243;28;20038;-70
2022/03/28 06:48:26;;;;;;;35.38;5.22;;;;;;;2.13;97.80;101821.19;6003917;28;20494;-71
2022/03/28 06:51:21;;;;;;;44.30;5.27;;;;;;;2.22;97.74;101815.59;5982736;28;20050;-71
2022/03/28 06:54:19;;;;;;;49.40;5.63;;;;;;;2.15;97.75;101811.50;5980580;29;20290;-72
2022/03/28 06:57:14;;;;;;;15.85;5.10;;;;;;;2.50;98.42;101804.72;5980714;29;20027;-71
2022/03/28 07:00:10;;;;;;;12.97;4.87;;;;;;;2.59;97.58;101803.47;5979666;29;20085;-72
2022/03/28 07:03:07;;;;;;;76.60;7.43;;;;;;;2.45;97.02;101801.47;5974081;29;20777;-72
2022/03/28 07:06:02;;;;;;;34.15;6.63;;;;;;;2.28;96.84;101804.00;5980459;29;20410;-72
2022/03/28 07:08:58;;;;;;;15.32;5.40;;;;;;;2.79;96.79;101793.84;5980188;29;20066;-71
2022/03/28 07:11:53;;;;;;;18.73;6.33;;;;;;;2.63;96.62;101795.44;5984922;28;20031;-70
2022/03/28 07:14:48;;;;;;;24.67;5.53;;;;;;;2.70;96.38;101789.00;5978072;28;20074;-72
2022/03/28 07:17:52;;;;;;;31.07;5.10;;;;;;;2.78;95.88;101802.59;5979629;28;20039;-72
2022/03/28 07:20:48;;;;;;;15.57;6.05;;;;;;;2.89;96.01;101784.63;5979452;28;20034;-71
2022/03/28 07:23:44;;;;;;;12.13;4.50;;;;;;;3.02;95.77;101789.31;5979293;29;20027;-70
2022/03/28 07:26:39;;;;;;;27.83;4.72;;;;;;;2.82;94.87;101784.97;5980192;29;20097;-73
2022/03/28 07:29:34;;;;;;;37.63;4.67;;;;;;;2.84;94.82;101791.00;5977934;29;20043;-69
2022/03/28 07:32:30;;;;;;;20.83;4.77;;;;;;;2.83;94.47;101784.03;5995916;28;20046;-71
2022/03/28 07:35:25;;;;;;;18.30;4.53;;;;;;;2.95;94.68;101786.09;6001519;28;20128;-70
2022/03/28 07:38:20;;;;;;;8.80;3.45;;;;;;;3.02;94.61;101790.13;5988662;28;20380;-72
2022/03/28 07:41:16;;;;;;;28.53;4.80;;;;;;;2.99;94.53;101788.50;5979115;29;20387;-72
2022/03/28 07:44:11;;;;;;;15.93;4.47;;;;;;;3.21;94.35;101783.09;6001871;28;20026;-71
2022/03/28 07:47:08;;;;;;;24.90;4.93;;;;;;;3.40;93.41;101788.31;5988037;28;20043;-71
2022/03/28 07:50:04;;;;;;;22.13;3.92;;;;;;;3.29;93.69;101782.75;5978959;29;20027;-70
2022/03/28 07:53:00;;;;;;;24.23;5.10;;;;;;;3.33;93.27;101781.69;5979310;29;20031;-73
2022/03/28 07:55:56;;;;;;;11.68;4.40;;;;;;;3.44;93.65;101790.72;5979258;29;20046;-71
2022/03/28 07:58:51;;;;;;;12.77;4.40;;;;;;;3.44;93.46;101797.75;5977042;28;20047;-71
2022/03/28 08:01:47;;;;;;;15.38;4.25;;;;;;;3.53;93.27;101790.25;5978743;28;20403;-69
2022/03/28 08:04:46;;;;;;;9.55;4.10;;;;;;;3.54;93.10;101791.13;5989251;28;20441;-71
2022/03/28 08:07:41;;;;;;;17.80;4.93;;;;;;;3.48;93.15;101787.03;5978036;28;20123;-72
2022/03/28 08:10:37;;;;;;;14.73;4.82;;;;;;;3.49;92.43;101785.25;5956141;28;20036;-71
2022/03/28 08:13:32;;;;;;;12.68;4.70;;;;;;;3.45;92.35;101770.63;5993281;28;20035;-72
2022/03/28 08:16:27;;;;;;;11.33;4.40;;;;;;;3.71;92.69;101771.94;5981158;28;20040;-72
2022/03/28 08:19:23;;;;;;;12.63;5.23;;;;;;;3.61;92.01;101772.38;5982932;28;20542;-69
2022/03/28 08:22:19;;;;;;;12.40;4.18;;;;;;;3.52;91.82;101770.22;5977895;29;20027;-73
2022/03/28 08:25:14;;;;;;;10.23;4.13;;;;;;;3.84;92.38;101767.75;5977014;29;20079;-73
2022/03/28 08:28:09;;;;;;;9.55;4.50;;;;;;;4.09;91.38;101757.72;5959011;29;20283;-71
2022/03/28 08:31:05;;;;;;;10.40;4.57;;;;;;;4.42;91.09;101750.72;5981056;29;20035;-72
2022/03/28 08:34:00;;;;;;;9.32;4.18;;;;;;;4.48;90.12;101747.78;5979330;28;20138;-73
2022/03/28 08:36:56;;;;;;;8.55;4.38;;;;;;;4.43;89.45;101752.41;5980421;28;20039;-72
2022/03/28 08:39:54;;;;;;;9.20;4.10;;;;;;;4.56;89.38;101747.38;5982370;28;20150;-71
2022/03/28 08:42:50;;;;;;;8.25;4.05;;;;;;;4.72;88.11;101742.97;5976454;29;20074;-70
2022/03/28 08:45:46;;;;;;;7.50;3.72;;;;;;;4.58;86.80;101745.50;5991477;28;20097;-71
2022/03/28 08:48:42;;;;;;;12.10;3.55;;;;;;;4.65;87.67;101737.19;5958184;29;20043;-71
2022/03/28 08:51:37;;;;;;;7.82;3.83;;;;;;;4.74;86.36;101733.22;5977969;29;20039;-72
2022/03/28 08:54:33;;;;;;;7.03;3.43;;;;;;;4.99;86.42;101735.34;5980638;29;20058;-71
2022/03/28 08:57:28;;;;;;;6.90;3.47;;;;;;;5.27;85.58;101720.56;5971438;28;20024;-72
2022/03/28 09:00:24;;;;;;;7.30;3.47;;;;;;;5.20;84.45;101736.78;5978345;28;20403;-72
2022/03/28 09:03:19;;;;;;;7.37;3.23;;;;;;;5.11;84.79;101732.06;5981584;28;20106;-72
2022/03/28 09:06:31;;;;;;;7.43;3.67;;;;;;;5.49;84.36;101728.06;5974184;28;20778;-72
2022/03/28 09:09:29;;;;;;;9.73;3.50;;;;;;;5.55;83.20;101722.44;5976652;29;20121;-72
2022/03/28 09:12:24;;;;;;;6.68;3.25;;;;;;;5.52;84.26;101725.25;5978469;29;20032;-71
2022/03/28 09:15:20;;;;;;;5.70;3.13;;;;;;;5.80;83.81;101724.50;5983180;28;20043;-70
2022/03/28 09:18:30;;;;;;;6.23;3.43;;;;;;;5.91;83.08;101722.97;5983403;28;20041;-71
2022/03/28 09:21:25;;;;;;;7.05;3.75;;;;;;;5.83;81.71;101721.69;5981547;28;20424;-71
2022/03/28 09:24:30;;;;;;;7.78;3.33;;;;;;;6.32;80.82;101716.97;5976319;29;20090;-72
2022/03/28 09:27:27;;;;;;;9.20;3.25;;;;;;;6.38;80.56;101727.13;5980945;29;20031;-70
2022/03/28 09:30:23;;;;;;;8.95;3.85;;;;;;;6.12;81.71;101714.69;5976698;28;20062;-71
2022/03/28 09:33:18;;;;;;;10.10;3.67;;;;;;;6.25;81.85;101723.56;5971319;28;20039;-71
2022/03/28 09:36:14;;;;;;;7.93;3.55;;;;;;;6.57;81.01;101717.16;5983505;28;20127;-70
2022/03/28 09:39:16;;;;;;;7.30;3.50;;;;;;;6.98;79.47;101707.47;5970846;29;20039;-70
2022/03/28 09:42:12;;;;;;;7.78;3.83;;;;;;;6.79;79.84;101711.38;5982778;28;20027;-71
2022/03/28 09:45:21;;;;;;;9.55;3.20;;;;;;;7.43;77.66;101702.75;5996047;28;20058;-70
2022/03/28 09:48:19;;;;;;;9.65;3.53;;;;;;;7.51;77.80;101692.53;5971883;29;20043;-70
2022/03/28 09:51:16;;;;;;;9.43;3.53;;;;;;;7.65;76.98;101690.69;5976516;28;20055;-70
2022/03/28 09:54:19;;;;;;;9.20;3.90;;;;;;;7.20;78.79;101681.38;5977064;29;20047;-71
2022/03/28 09:57:33;;;;;;;12.00;3.95;;;;;;;7.61;77.90;101675.16;5983364;28;20450;-69
2022/03/28 10:00:28;;;;;;;11.48;4.50;;;;;;;8.01;77.43;101681.19;5981148;28;20094;-71
2022/03/28 10:03:23;;;;;;;9.57;4.43;;;;;;;7.90;76.71;101678.44;5981076;28;20067;-71
2022/03/28 10:06:20;;;;;;;11.20;4.82;;;;;;;8.09;75.71;101670.94;5990850;28;20321;-69
2022/03/28 10:09:15;;;;;;;8.27;4.22;;;;;;;8.25;75.68;101671.56;5979708;28;20115;-70
2022/03/28 10:12:10;;;;;;;11.47;4.47;;;;;;;8.25;75.74;101672.41;5977708;28;20402;-71
2022/03/28 10:15:06;;;;;;;10.57;4.57;;;;;;;8.56;74.52;101665.81;5980959;28;20286;-70
2022/03/28 10:18:01;;;;;;;13.45;4.85;;;;;;;8.38;74.58;101662.69;5981082;28;20475;-72
2022/03/28 10:21:00;;;;;;;11.93;4.75;;;;;;;8.05;76.15;101667.66;5972632;28;20047;-71
2022/03/28 10:24:08;;;;;;;12.00;4.65;;;;;;;8.28;76.75;101651.09;5973941;28;20475;-71
2022/03/28 10:27:05;;;;;;;11.07;4.82;;;;;;;8.57;76.04;101650.81;5976357;29;20398;-69
2022/03/28 10:30:16;;;;;;;15.35;5.30;;;;;;;8.57;74.98;101650.81;5975886;29;20487;-72
2022/03/28 10:33:16;;;;;;;15.73;5.40;;;;;;;9.04;74.30;101634.97;5975599;28;20046;-70
2022/03/28 10:36:30;;;;;;;11.15;4.45;;;;;;;9.04;73.48;101634.97;5977735;29;20066;-72
2022/03/28 10:39:36;;;;;;;8.95;3.75;;;;;;;9.14;73.67;101629.84;5979098;29;20039;-69
2022/03/28 10:42:35;;;;;;;13.15;5.47;;;;;;;9.30;72.90;101625.94;5973985;29;20031;-71
2022/03/28 10:45:32;;;;;;;13.43;5.75;;;;;;;9.25;72.58;101622.78;5981057;28;20039;-70
2022/03/28 10:48:46;;;;;;;9.52;4.82;;;;;;;9.12;73.93;101616.72;5998653;28;20503;-71
2022/03/28 10:51:47;;;;;;;14.18;5.65;;;;;;;9.22;73.91;101617.72;5989532;28;20545;-71
2022/03/28 10:54:43;;;;;;;14.43;5.50;;;;;;;9.37;74.02;101611.28;5990066;28;20027;-71
2022/03/28 10:57:38;;;;;;;14.73;6.43;;;;;;;9.86;72.53;101615.47;5984306;28;20047;-72
2022/03/28 11:00:34;;;;;;;14.70;6.07;;;;;;;9.81;72.88;101609.69;5972103;28;20127;-70
2022/03/28 11:03:34;;;;;;;14.45;5.40;;;;;;;10.22;72.08;101599.34;5977231;29;20040;-70
2022/03/28 11:06:59;;;;;;;11.27;5.45;;;;;;;10.31;71.66;101597.75;5974040;29;20391;-71
2022/03/28 11:10:11;;;;;;;13.18;6.05;;;;;;;10.58;70.56;101588.44;5974850;29;20521;-71
2022/03/28 11:13:14;;;;;;;14.02;6.00;;;;;;;10.42;70.49;101579.19;5974683;28;20035;-71
2022/03/28 11:16:19;;;;;;;17.50;6.68;;;;;;;10.73;70.61;101568.59;5980406;28;20491;-69
2022/03/28 11:19:32;;;;;;;16.63;6.00;;;;;;;10.44;70.85;101566.66;5972231;29;20483;-70
2022/03/28 11:22:39;;;;;;;16.42;6.32;;;;;;;10.69;70.26;101569.00;5977273;28;20474;-71
2022/03/28 11:25:44;;;;;;;22.48;6.78;;;;;;;10.73;70.17;101558.00;5983194;28;20142;-70
2022/03/28 11:28:40;;;;;;;15.85;6.22;;;;;;;10.74;69.53;101557.03;5979586;29;20046;-72
2022/03/28 11:31:35;;;;;;;19.85;7.35;;;;;;;10.75;70.00;101556.09;5960284;28;20470;-71
2022/03/28 11:34:31;;;;;;;13.73;6.47;;;;;;;10.69;70.12;101551.28;5976731;28;20125;-70
2022/03/28 11:37:28;;;;;;;13.27;6.35;;;;;;;10.24;71.37;101549.72;5984825;28;20067;-70
2022/03/28 11:40:23;;;;;;;21.10;6.80;;;;;;;10.01;72.57;101542.72;5978835;28;20458;-72
2022/03/28 11:43:26;;;;;;;16.23;7.60;;;;;;;10.15;72.19;101534.53;5976568;29;20039;-70
2022/03/28 11:46:31;;;;;;;15.20;6.35;;;;;;;10.39;71.43;101532.56;5976350;28;20059;-72
2022/03/28 11:49:27;;;;;;;18.67;6.53;;;;;;;10.53;70.91;101532.28;5978032;29;20043;-71
2022/03/28 11:52:23;;;;;;;15.75;5.63;;;;;;;10.61;70.57;101531.66;5975287;28;20502;-71
2022/03/28 11:55:22;;;;;;;13.10;5.55;;;;;;;10.49;71.24;101525.53;5979222;28;20062;-71
2022/03/28 11:58:26;;;;;;;14.65;6.82;;;;;;;10.83;71.10;101513.00;5972858;29;20499;-72
2022/03/28 12:01:22;;;;;;;13.30;5.60;;;;;;;10.86;70.18;101501.28;5975056;28;20042;-73
2022/03/28 12:04:18;;;;;;;16.10;6.70;;;;;;;10.82;69.67;101491.91;5969933;28;20035;-72
2022/03/28 12:07:13;;;;;;;14.98;6.05;;;;;;;10.96;69.64;101480.94;5980134;28;20390;-71
2022/03/28 12:10:09;;;;;;;15.93;5.67;;;;;;;11.10;69.03;101477.97;5988674;28;20034;-69
2022/03/28 12:13:06;;;;;;;13.37;5.43;;;;;;;11.35;68.46;101465.13;5979133;28;20039;-70
2022/03/28 12:16:01;;;;;;;14.35;5.97;;;;;;;11.71;67.40;101463.75;5974784;28;20638;-70
2022/03/28 12:18:59;;;;;;;17.03;6.30;;;;;;;11.41;67.57;101458.44;5970136;28;20047;-71
2022/03/28 12:21:56;;;;;;;15.35;6.85;;;;;;;11.75;67.18;101457.19;5964149;28;20036;-70
2022/03/28 12:24:52;;;;;;;14.00;5.95;;;;;;;11.89;66.65;101454.16;5971214;29;20127;-71
2022/03/28 12:27:51;;;;;;;14.20;5.28;;;;;;;11.88;65.75;101452.47;5986156;28;20042;-71
2022/03/28 12:30:53;;;;;;;11.02;4.70;;;;;;;11.81;66.43;101446.03;5965354;28;20043;-71
2022/03/28 12:33:49;;;;;;;14.60;5.22;;;;;;;11.78;65.84;101446.31;5977230;28;20139;-70
2022/03/28 12:36:44;;;;;;;16.60;5.77;;;;;;;12.03;65.42;101444.97;5983167;28;20030;-71
2022/03/28 12:39:43;;;;;;;15.32;6.50;;;;;;;12.07;65.15;101429.56;5959108;29;20666;-71
2022/03/28 12:42:42;;;;;;;13.43;4.93;;;;;;;12.14;65.02;101420.06;5983830;28;20066;-71
2022/03/28 12:45:39;;;;;;;14.82;4.55;;;;;;;12.48;64.20;101408.03;5984736;28;20044;-72
2022/03/28 12:48:40;;;;;;;13.05;6.53;;;;;;;12.48;64.67;101408.03;5976470;29;20055;-70
2022/03/28 12:51:37;;;;;;;13.15;4.53;;;;;;;12.77;64.06;101400.88;5966703;28;20050;-72
2022/03/28 12:54:32;;;;;;;16.95;5.60;;;;;;;12.69;63.70;101400.72;5979421;28;20082;-69
2022/03/28 12:57:30;;;;;;;15.30;5.90;;;;;;;12.92;62.06;101401.22;5969372;28;20039;-70
2022/03/28 13:00:26;;;;;;;18.25;5.20;;;;;;;12.66;63.22;101393.03;5968669;29;20065;-70
2022/03/28 13:03:28;;;;;;;12.60;4.82;;;;;;;12.82;62.45;101398.59;5982424;28;20027;-70
2022/03/28 13:06:32;;;;;;;16.50;4.97;;;;;;;12.98;62.10;101388.19;5973936;29;20069;-70
2022/03/28 13:09:27;;;;;;;11.82;5.20;;;;;;;13.07;62.18;101384.66;5977543;28;20090;-71
2022/03/28 13:12:36;;;;;;;13.77;5.03;;;;;;;12.98;62.50;101372.22;5959245;28;20052;-71
2022/03/28 13:15:41;;;;;;;13.68;5.55;;;;;;;13.29;61.40;101364.00;5973843;28;20403;-70
2022/03/28 13:18:37;;;;;;;14.48;4.55;;;;;;;13.05;61.52;101365.31;5987249;28;20050;-70
2022/03/28 13:21:38;;;;;;;13.90;6.03;;;;;;;13.20;61.27;101354.22;5980110;28;20059;-72
2022/03/28 13:24:35;;;;;;;18.80;5.90;;;;;;;13.33;60.36;101347.56;5979785;28;20031;-73
2022/03/28 13:30:47;;;;;;;14.55;6.13;;;;;;;13.64;60.68;101356.09;5987189;28;20394;-72
2022/03/28 13:33:43;;;;;;;16.30;5.30;;;;;;;13.59;59.76;101347.69;5991851;28;20035;-70
2022/03/28 13:36:38;;;;;;;15.13;6.30;;;;;;;13.19;59.46;101339.22;5982352;29;20094;-69
2022/03/28 13:39:34;;;;;;;11.48;5.15;;;;;;;12.97;61.04;101330.59;5980769;29;20286;-69
2022/03/28 13:42:29;;;;;;;18.48;6.28;;;;;;;12.99;60.52;101333.94;5989377;28;20537;-68
2022/03/28 13:45:26;;;;;;;11.60;4.87;;;;;;;13.02;60.99;101311.50;5995120;28;20047;-68
2022/03/28 13:48:23;;;;;;;14.93;5.82;;;;;;;13.25;59.97;101312.00;5998408;28;20402;-71